sensor_id;sensor_type;location;lat;lon;timestamp;temperature;humidity
26909;DHT22;14477;51.038;4.588;2023-05-07T00:02:00;18.00;79.90
26909;DHT22;14477;51.038;4.588;2023-05-07T00:04:26;18.00;79.10
26909;DHT22;14477;51.038;4.588;2023-05-07T00:06:53;18.00;79.20
26909;DHT22;14477;51.038;4.588;2023-05-07T00:09:19;18.00;79.40
26909;DHT22;14477;51.038;4.588;2023-05-07T00:11:45;18.00;79.50
26909;DHT22;14477;51.038;4.588;2023-05-07T00:14:10;18.00;79.50
26909;DHT22;14477;51.038;4.588;2023-05-07T00:16:36;17.90;79.50
26909;DHT22;14477;51.038;4.588;2023-05-07T00:19:02;17.90;79.60
26909;DHT22;14477;51.038;4.588;2023-05-07T00:21:28;18.00;79.80
26909;DHT22;14477;51.038;4.588;2023-05-07T00:23:54;18.00;80.00
26909;DHT22;14477;51.038;4.588;2023-05-07T00:26:20;17.90;80.00
26909;DHT22;14477;51.038;4.588;2023-05-07T00:28:46;17.90;80.80
26909;DHT22;14477;51.038;4.588;2023-05-07T00:31:11;17.90;80.10
26909;DHT22;14477;51.038;4.588;2023-05-07T00:33:38;17.90;80.20
26909;DHT22;14477;51.038;4.588;2023-05-07T00:36:04;17.90;80.40
26909;DHT22;14477;51.038;4.588;2023-05-07T00:38:30;17.90;80.40
26909;DHT22;14477;51.038;4.588;2023-05-07T00:40:55;17.90;80.40
26909;DHT22;14477;51.038;4.588;2023-05-07T00:43:21;17.90;81.30
26909;DHT22;14477;51.038;4.588;2023-05-07T00:45:47;17.90;80.60
26909;DHT22;14477;51.038;4.588;2023-05-07T00:48:13;17.90;80.60
26909;DHT22;14477;51.038;4.588;2023-05-07T00:50:39;17.90;80.80
26909;DHT22;14477;51.038;4.588;2023-05-07T00:53:06;17.90;80.80
26909;DHT22;14477;51.038;4.588;2023-05-07T00:55:32;17.90;81.10
26909;DHT22;14477;51.038;4.588;2023-05-07T00:57:58;17.80;81.00
26909;DHT22;14477;51.038;4.588;2023-05-07T01:00:24;17.80;81.10
26909;DHT22;14477;51.038;4.588;2023-05-07T01:02:50;17.80;81.10
26909;DHT22;14477;51.038;4.588;2023-05-07T01:05:18;17.80;81.30
26909;DHT22;14477;51.038;4.588;2023-05-07T01:07:46;17.80;81.60
26909;DHT22;14477;51.038;4.588;2023-05-07T01:10:12;17.80;81.40
26909;DHT22;14477;51.038;4.588;2023-05-07T01:12:40;17.90;81.50
26909;DHT22;14477;51.038;4.588;2023-05-07T01:15:08;17.80;81.60
26909;DHT22;14477;51.038;4.588;2023-05-07T01:17:41;17.80;81.70
26909;DHT22;14477;51.038;4.588;2023-05-07T01:20:08;17.80;82.50
26909;DHT22;14477;51.038;4.588;2023-05-07T01:22:37;17.80;81.70
26909;DHT22;14477;51.038;4.588;2023-05-07T01:25:06;17.80;81.80
26909;DHT22;14477;51.038;4.588;2023-05-07T01:27:35;17.80;82.20
26909;DHT22;14477;51.038;4.588;2023-05-07T01:30:04;17.80;81.80
26909;DHT22;14477;51.038;4.588;2023-05-07T01:32:57;17.70;81.90
26909;DHT22;14477;51.038;4.588;2023-05-07T01:35:27;17.70;83.90
26909;DHT22;14477;51.038;4.588;2023-05-07T01:37:54;17.70;82.40
26909;DHT22;14477;51.038;4.588;2023-05-07T01:40:20;17.70;82.90
26909;DHT22;14477;51.038;4.588;2023-05-07T01:42:47;17.70;82.20
26909;DHT22;14477;51.038;4.588;2023-05-07T01:45:14;17.70;82.40
26909;DHT22;14477;51.038;4.588;2023-05-07T01:47:40;17.70;82.40
26909;DHT22;14477;51.038;4.588;2023-05-07T01:50:07;17.70;82.50
26909;DHT22;14477;51.038;4.588;2023-05-07T01:52:39;17.70;82.70
26909;DHT22;14477;51.038;4.588;2023-05-07T01:55:06;17.70;83.00
26909;DHT22;14477;51.038;4.588;2023-05-07T01:57:32;17.70;82.70
26909;DHT22;14477;51.038;4.588;2023-05-07T01:59:58;17.60;82.70
26909;DHT22;14477;51.038;4.588;2023-05-07T02:02:24;17.70;82.70
26909;DHT22;14477;51.038;4.588;2023-05-07T02:04:50;17.60;82.80
26909;DHT22;14477;51.038;4.588;2023-05-07T02:07:16;17.70;82.90
26909;DHT22;14477;51.038;4.588;2023-05-07T02:09:42;17.60;82.90
26909;DHT22;14477;51.038;4.588;2023-05-07T02:12:07;17.60;83.00
26909;DHT22;14477;51.038;4.588;2023-05-07T02:14:33;17.60;83.00
26909;DHT22;14477;51.038;4.588;2023-05-07T02:16:59;17.60;83.10
26909;DHT22;14477;51.038;4.588;2023-05-07T02:19:25;17.60;83.10
26909;DHT22;14477;51.038;4.588;2023-05-07T02:21:51;17.60;83.30
26909;DHT22;14477;51.038;4.588;2023-05-07T02:24:16;17.60;83.40
26909;DHT22;14477;51.038;4.588;2023-05-07T02:26:42;17.60;83.50
26909;DHT22;14477;51.038;4.588;2023-05-07T02:29:08;17.60;83.60
26909;DHT22;14477;51.038;4.588;2023-05-07T02:31:34;17.60;83.70
26909;DHT22;14477;51.038;4.588;2023-05-07T02:34:00;17.60;83.80
26909;DHT22;14477;51.038;4.588;2023-05-07T02:36:26;17.60;83.90
26909;DHT22;14477;51.038;4.588;2023-05-07T02:38:54;17.50;83.80
26909;DHT22;14477;51.038;4.588;2023-05-07T02:41:20;17.50;83.80
26909;DHT22;14477;51.038;4.588;2023-05-07T02:43:46;17.50;84.00
26909;DHT22;14477;51.038;4.588;2023-05-07T02:46:12;17.50;84.10
26909;DHT22;14477;51.038;4.588;2023-05-07T02:48:38;17.50;84.10
26909;DHT22;14477;51.038;4.588;2023-05-07T02:51:04;17.50;84.30
26909;DHT22;14477;51.038;4.588;2023-05-07T02:53:31;17.50;84.40
26909;DHT22;14477;51.038;4.588;2023-05-07T02:55:58;17.40;84.50
26909;DHT22;14477;51.038;4.588;2023-05-07T02:58:24;17.40;84.60
26909;DHT22;14477;51.038;4.588;2023-05-07T03:00:50;17.40;84.60
26909;DHT22;14477;51.038;4.588;2023-05-07T03:03:16;17.40;84.80
26909;DHT22;14477;51.038;4.588;2023-05-07T03:05:42;17.40;84.80
26909;DHT22;14477;51.038;4.588;2023-05-07T03:08:10;17.40;84.90
26909;DHT22;14477;51.038;4.588;2023-05-07T03:10:37;17.40;85.10
26909;DHT22;14477;51.038;4.588;2023-05-07T03:13:03;17.40;85.10
26909;DHT22;14477;51.038;4.588;2023-05-07T03:15:29;17.40;84.90
26909;DHT22;14477;51.038;4.588;2023-05-07T03:17:55;17.40;84.90
26909;DHT22;14477;51.038;4.588;2023-05-07T03:20:20;17.30;84.90
26909;DHT22;14477;51.038;4.588;2023-05-07T03:22:46;17.40;85.10
26909;DHT22;14477;51.038;4.588;2023-05-07T03:25:12;17.40;85.10
26909;DHT22;14477;51.038;4.588;2023-05-07T03:27:39;17.30;85.20
26909;DHT22;14477;51.038;4.588;2023-05-07T03:30:08;17.40;85.40
26909;DHT22;14477;51.038;4.588;2023-05-07T03:32:34;17.30;85.50
26909;DHT22;14477;51.038;4.588;2023-05-07T03:35:01;17.40;85.60
26909;DHT22;14477;51.038;4.588;2023-05-07T03:37:27;17.40;85.60
26909;DHT22;14477;51.038;4.588;2023-05-07T03:39:52;17.40;86.50
26909;DHT22;14477;51.038;4.588;2023-05-07T03:42:18;17.40;85.80
26909;DHT22;14477;51.038;4.588;2023-05-07T03:44:44;17.40;85.90
26909;DHT22;14477;51.038;4.588;2023-05-07T03:47:10;17.40;85.80
26909;DHT22;14477;51.038;4.588;2023-05-07T03:49:36;17.40;85.90
26909;DHT22;14477;51.038;4.588;2023-05-07T03:52:02;17.40;86.10
26909;DHT22;14477;51.038;4.588;2023-05-07T03:54:28;17.30;86.00
26909;DHT22;14477;51.038;4.588;2023-05-07T03:56:54;17.40;86.10
26909;DHT22;14477;51.038;4.588;2023-05-07T03:59:19;17.40;86.10
26909;DHT22;14477;51.038;4.588;2023-05-07T04:01:45;17.40;86.10
26909;DHT22;14477;51.038;4.588;2023-05-07T04:04:11;17.40;86.30
26909;DHT22;14477;51.038;4.588;2023-05-07T04:06:37;17.30;86.20
26909;DHT22;14477;51.038;4.588;2023-05-07T04:09:03;17.40;86.30
26909;DHT22;14477;51.038;4.588;2023-05-07T04:11:29;17.30;86.30
26909;DHT22;14477;51.038;4.588;2023-05-07T04:13:54;17.30;86.40
26909;DHT22;14477;51.038;4.588;2023-05-07T04:16:20;17.30;86.50
26909;DHT22;14477;51.038;4.588;2023-05-07T04:18:46;17.40;86.60
26909;DHT22;14477;51.038;4.588;2023-05-07T04:21:16;17.30;86.70
26909;DHT22;14477;51.038;4.588;2023-05-07T04:23:42;17.30;88.10
26909;DHT22;14477;51.038;4.588;2023-05-07T04:26:08;17.30;86.90
26909;DHT22;14477;51.038;4.588;2023-05-07T04:28:34;17.30;87.60
26909;DHT22;14477;51.038;4.588;2023-05-07T04:31:00;17.30;87.10
26909;DHT22;14477;51.038;4.588;2023-05-07T04:33:26;17.40;87.10
26909;DHT22;14477;51.038;4.588;2023-05-07T04:35:51;17.40;87.10
26909;DHT22;14477;51.038;4.588;2023-05-07T04:38:17;17.40;87.20
26909;DHT22;14477;51.038;4.588;2023-05-07T04:40:44;17.40;87.30
26909;DHT22;14477;51.038;4.588;2023-05-07T04:43:10;17.40;87.40
26909;DHT22;14477;51.038;4.588;2023-05-07T04:45:36;17.40;87.40
26909;DHT22;14477;51.038;4.588;2023-05-07T04:48:02;17.40;87.60
26909;DHT22;14477;51.038;4.588;2023-05-07T04:50:28;17.40;87.60
26909;DHT22;14477;51.038;4.588;2023-05-07T04:52:54;17.40;87.70
26909;DHT22;14477;51.038;4.588;2023-05-07T04:55:20;17.40;87.70
26909;DHT22;14477;51.038;4.588;2023-05-07T04:57:46;17.40;87.80
26909;DHT22;14477;51.038;4.588;2023-05-07T05:00:11;17.40;87.90
26909;DHT22;14477;51.038;4.588;2023-05-07T05:02:40;17.40;87.90
26909;DHT22;14477;51.038;4.588;2023-05-07T05:05:06;17.40;88.10
26909;DHT22;14477;51.038;4.588;2023-05-07T05:07:32;17.50;88.00
26909;DHT22;14477;51.038;4.588;2023-05-07T05:09:58;17.50;88.10
26909;DHT22;14477;51.038;4.588;2023-05-07T05:12:24;17.50;88.20
26909;DHT22;14477;51.038;4.588;2023-05-07T05:14:50;17.50;88.30
26909;DHT22;14477;51.038;4.588;2023-05-07T05:17:16;17.50;88.30
26909;DHT22;14477;51.038;4.588;2023-05-07T05:19:42;17.50;88.40
26909;DHT22;14477;51.038;4.588;2023-05-07T05:22:08;17.60;88.50
26909;DHT22;14477;51.038;4.588;2023-05-07T05:24:33;17.60;88.40
26909;DHT22;14477;51.038;4.588;2023-05-07T05:26:59;17.60;88.50
26909;DHT22;14477;51.038;4.588;2023-05-07T05:29:28;17.60;88.60
26909;DHT22;14477;51.038;4.588;2023-05-07T05:31:54;17.60;88.60
26909;DHT22;14477;51.038;4.588;2023-05-07T05:34:19;17.70;88.80
26909;DHT22;14477;51.038;4.588;2023-05-07T05:36:45;17.70;88.80
26909;DHT22;14477;51.038;4.588;2023-05-07T05:39:11;17.70;88.90
26909;DHT22;14477;51.038;4.588;2023-05-07T05:41:38;17.80;89.00
26909;DHT22;14477;51.038;4.588;2023-05-07T05:44:03;17.80;89.10
26909;DHT22;14477;51.038;4.588;2023-05-07T05:46:29;17.80;89.10
26909;DHT22;14477;51.038;4.588;2023-05-07T05:48:55;17.90;89.30
26909;DHT22;14477;51.038;4.588;2023-05-07T05:51:21;17.90;89.20
26909;DHT22;14477;51.038;4.588;2023-05-07T05:53:47;18.00;89.40
26909;DHT22;14477;51.038;4.588;2023-05-07T05:56:13;18.10;89.30
26909;DHT22;14477;51.038;4.588;2023-05-07T05:58:39;18.10;89.30
26909;DHT22;14477;51.038;4.588;2023-05-07T06:01:05;18.10;88.80
26909;DHT22;14477;51.038;4.588;2023-05-07T06:03:31;18.10;89.40
26909;DHT22;14477;51.038;4.588;2023-05-07T06:05:58;18.20;89.60
26909;DHT22;14477;51.038;4.588;2023-05-07T06:08:29;18.20;89.70
26909;DHT22;14477;51.038;4.588;2023-05-07T06:10:58;18.30;89.80
26909;DHT22;14477;51.038;4.588;2023-05-07T06:13:25;18.40;89.90
26909;DHT22;14477;51.038;4.588;2023-05-07T06:15:50;18.40;89.80
26909;DHT22;14477;51.038;4.588;2023-05-07T06:18:16;18.50;89.70
26909;DHT22;14477;51.038;4.588;2023-05-07T06:20:42;18.60;89.70
26909;DHT22;14477;51.038;4.588;2023-05-07T06:23:07;18.60;89.70
26909;DHT22;14477;51.038;4.588;2023-05-07T06:25:33;18.70;89.70
26909;DHT22;14477;51.038;4.588;2023-05-07T06:27:59;18.70;89.80
26909;DHT22;14477;51.038;4.588;2023-05-07T06:30:24;18.80;90.00
26909;DHT22;14477;51.038;4.588;2023-05-07T06:32:50;18.80;89.90
26909;DHT22;14477;51.038;4.588;2023-05-07T06:35:16;18.90;89.90
26909;DHT22;14477;51.038;4.588;2023-05-07T06:37:42;19.00;90.00
26909;DHT22;14477;51.038;4.588;2023-05-07T06:40:08;19.00;89.90
26909;DHT22;14477;51.038;4.588;2023-05-07T06:42:35;19.10;89.80
26909;DHT22;14477;51.038;4.588;2023-05-07T06:45:01;19.10;89.50
26909;DHT22;14477;51.038;4.588;2023-05-07T06:47:28;19.20;89.30
26909;DHT22;14477;51.038;4.588;2023-05-07T06:49:54;19.20;89.00
26909;DHT22;14477;51.038;4.588;2023-05-07T06:52:19;19.20;88.80
26909;DHT22;14477;51.038;4.588;2023-05-07T06:54:45;19.10;88.50
26909;DHT22;14477;51.038;4.588;2023-05-07T06:57:11;19.10;88.50
26909;DHT22;14477;51.038;4.588;2023-05-07T06:59:37;19.00;88.50
26909;DHT22;14477;51.038;4.588;2023-05-07T07:02:03;19.00;88.60
26909;DHT22;14477;51.038;4.588;2023-05-07T07:04:28;19.00;88.70
26909;DHT22;14477;51.038;4.588;2023-05-07T07:06:54;18.90;88.80
26909;DHT22;14477;51.038;4.588;2023-05-07T07:09:20;18.90;88.90
26909;DHT22;14477;51.038;4.588;2023-05-07T07:11:46;18.90;89.10
26909;DHT22;14477;51.038;4.588;2023-05-07T07:14:11;19.00;89.30
26909;DHT22;14477;51.038;4.588;2023-05-07T07:16:37;19.00;89.40
26909;DHT22;14477;51.038;4.588;2023-05-07T07:19:03;19.00;89.40
26909;DHT22;14477;51.038;4.588;2023-05-07T07:21:29;19.00;89.40
26909;DHT22;14477;51.038;4.588;2023-05-07T07:23:55;19.00;89.40
26909;DHT22;14477;51.038;4.588;2023-05-07T07:26:21;19.10;89.40
26909;DHT22;14477;51.038;4.588;2023-05-07T07:28:47;19.10;89.50
26909;DHT22;14477;51.038;4.588;2023-05-07T07:31:13;19.10;89.50
26909;DHT22;14477;51.038;4.588;2023-05-07T07:33:39;19.20;89.60
26909;DHT22;14477;51.038;4.588;2023-05-07T07:36:06;19.20;89.50
26909;DHT22;14477;51.038;4.588;2023-05-07T07:38:32;19.30;89.50
26909;DHT22;14477;51.038;4.588;2023-05-07T07:40:58;19.30;89.30
26909;DHT22;14477;51.038;4.588;2023-05-07T07:43:24;19.30;89.10
26909;DHT22;14477;51.038;4.588;2023-05-07T07:45:49;19.40;89.00
26909;DHT22;14477;51.038;4.588;2023-05-07T07:48:15;19.40;88.80
26909;DHT22;14477;51.038;4.588;2023-05-07T07:50:41;19.40;88.70
26909;DHT22;14477;51.038;4.588;2023-05-07T07:53:07;19.40;88.50
26909;DHT22;14477;51.038;4.588;2023-05-07T07:55:38;19.40;88.40
26909;DHT22;14477;51.038;4.588;2023-05-07T07:58:05;19.40;88.50
26909;DHT22;14477;51.038;4.588;2023-05-07T08:00:31;19.40;88.30
26909;DHT22;14477;51.038;4.588;2023-05-07T08:02:56;19.40;88.40
26909;DHT22;14477;51.038;4.588;2023-05-07T08:05:23;19.40;88.60
26909;DHT22;14477;51.038;4.588;2023-05-07T08:07:49;19.40;88.80
26909;DHT22;14477;51.038;4.588;2023-05-07T08:10:19;19.40;89.00
26909;DHT22;14477;51.038;4.588;2023-05-07T08:12:50;19.40;88.80
26909;DHT22;14477;51.038;4.588;2023-05-07T08:15:17;19.40;89.00
26909;DHT22;14477;51.038;4.588;2023-05-07T08:17:43;19.40;88.80
26909;DHT22;14477;51.038;4.588;2023-05-07T08:20:09;19.40;89.00
26909;DHT22;14477;51.038;4.588;2023-05-07T08:22:35;19.50;89.00
26909;DHT22;14477;51.038;4.588;2023-05-07T08:25:02;19.50;89.00
26909;DHT22;14477;51.038;4.588;2023-05-07T08:27:27;19.50;89.00
26909;DHT22;14477;51.038;4.588;2023-05-07T08:29:53;19.50;89.00
26909;DHT22;14477;51.038;4.588;2023-05-07T08:32:20;19.50;89.10
26909;DHT22;14477;51.038;4.588;2023-05-07T08:34:46;19.50;89.00
26909;DHT22;14477;51.038;4.588;2023-05-07T08:37:11;19.50;89.00
26909;DHT22;14477;51.038;4.588;2023-05-07T08:39:37;19.50;89.10
26909;DHT22;14477;51.038;4.588;2023-05-07T08:42:04;19.50;89.00
26909;DHT22;14477;51.038;4.588;2023-05-07T08:44:34;19.50;89.20
26909;DHT22;14477;51.038;4.588;2023-05-07T08:47:01;19.50;89.30
26909;DHT22;14477;51.038;4.588;2023-05-07T08:49:28;19.50;89.30
26909;DHT22;14477;51.038;4.588;2023-05-07T08:51:54;19.50;89.50
26909;DHT22;14477;51.038;4.588;2023-05-07T08:54:21;19.50;89.60
26909;DHT22;14477;51.038;4.588;2023-05-07T08:56:47;19.60;89.80
26909;DHT22;14477;51.038;4.588;2023-05-07T08:59:13;19.50;89.80
26909;DHT22;14477;51.038;4.588;2023-05-07T09:01:39;19.60;89.70
26909;DHT22;14477;51.038;4.588;2023-05-07T09:04:05;19.60;89.70
26909;DHT22;14477;51.038;4.588;2023-05-07T09:06:32;19.60;89.60
26909;DHT22;14477;51.038;4.588;2023-05-07T09:08:58;19.50;89.60
26909;DHT22;14477;51.038;4.588;2023-05-07T09:11:27;19.60;89.80
26909;DHT22;14477;51.038;4.588;2023-05-07T09:13:57;19.50;89.90
26909;DHT22;14477;51.038;4.588;2023-05-07T09:16:29;19.60;90.10
26909;DHT22;14477;51.038;4.588;2023-05-07T09:18:59;19.50;89.90
26909;DHT22;14477;51.038;4.588;2023-05-07T09:21:26;19.60;90.00
26909;DHT22;14477;51.038;4.588;2023-05-07T09:23:53;19.50;89.80
26909;DHT22;14477;51.038;4.588;2023-05-07T09:26:22;19.50;90.00
26909;DHT22;14477;51.038;4.588;2023-05-07T09:28:48;19.60;90.10
26909;DHT22;14477;51.038;4.588;2023-05-07T09:31:13;19.60;90.00
26909;DHT22;14477;51.038;4.588;2023-05-07T09:33:39;19.50;90.00
26909;DHT22;14477;51.038;4.588;2023-05-07T09:36:07;19.50;90.00
26909;DHT22;14477;51.038;4.588;2023-05-07T09:38:34;19.50;90.10
26909;DHT22;14477;51.038;4.588;2023-05-07T09:41:13;19.50;90.10
26909;DHT22;14477;51.038;4.588;2023-05-07T09:43:39;19.50;90.20
26909;DHT22;14477;51.038;4.588;2023-05-07T09:46:12;19.50;90.10
26909;DHT22;14477;51.038;4.588;2023-05-07T09:48:40;19.60;90.40
26909;DHT22;14477;51.038;4.588;2023-05-07T09:51:28;19.60;90.20
26909;DHT22;14477;51.038;4.588;2023-05-07T09:53:56;19.60;90.50
26909;DHT22;14477;51.038;4.588;2023-05-07T09:56:23;19.60;90.20
26909;DHT22;14477;51.038;4.588;2023-05-07T09:58:49;19.60;90.20
26909;DHT22;14477;51.038;4.588;2023-05-07T10:01:18;19.60;90.30
26909;DHT22;14477;51.038;4.588;2023-05-07T10:03:47;19.60;90.40
26909;DHT22;14477;51.038;4.588;2023-05-07T10:06:15;19.60;90.30
26909;DHT22;14477;51.038;4.588;2023-05-07T10:08:42;19.60;90.30
26909;DHT22;14477;51.038;4.588;2023-05-07T10:11:09;19.60;90.50
26909;DHT22;14477;51.038;4.588;2023-05-07T10:13:35;19.60;90.60
26909;DHT22;14477;51.038;4.588;2023-05-07T10:16:05;19.60;90.70
26909;DHT22;14477;51.038;4.588;2023-05-07T10:18:32;19.60;91.10
26909;DHT22;14477;51.038;4.588;2023-05-07T10:21:06;19.70;91.10
26909;DHT22;14477;51.038;4.588;2023-05-07T10:23:33;19.70;91.50
26909;DHT22;14477;51.038;4.588;2023-05-07T10:26:02;19.70;91.30
26909;DHT22;14477;51.038;4.588;2023-05-07T10:28:30;19.80;91.50
26909;DHT22;14477;51.038;4.588;2023-05-07T10:33:33;19.80;91.50
26909;DHT22;14477;51.038;4.588;2023-05-07T10:36:01;19.90;91.50
26909;DHT22;14477;51.038;4.588;2023-05-07T10:38:30;19.90;91.50
26909;DHT22;14477;51.038;4.588;2023-05-07T10:40:56;19.90;91.40
26909;DHT22;14477;51.038;4.588;2023-05-07T10:43:23;19.90;91.50
26909;DHT22;14477;51.038;4.588;2023-05-07T10:46:11;19.90;91.50
26909;DHT22;14477;51.038;4.588;2023-05-07T10:51:29;19.90;91.90
26909;DHT22;14477;51.038;4.588;2023-05-07T10:56:38;19.90;91.70
26909;DHT22;14477;51.038;4.588;2023-05-07T11:02:02;19.90;92.10
26909;DHT22;14477;51.038;4.588;2023-05-07T11:04:28;19.80;91.80
26909;DHT22;14477;51.038;4.588;2023-05-07T11:10:07;19.80;92.20
26909;DHT22;14477;51.038;4.588;2023-05-07T11:15:09;19.90;92.30
26909;DHT22;14477;51.038;4.588;2023-05-07T11:17:51;19.90;92.40
26909;DHT22;14477;51.038;4.588;2023-05-07T11:20:18;19.90;92.40
26909;DHT22;14477;51.038;4.588;2023-05-07T11:22:43;20.00;92.50
26909;DHT22;14477;51.038;4.588;2023-05-07T11:25:10;20.00;92.50
26909;DHT22;14477;51.038;4.588;2023-05-07T11:27:36;20.10;92.40
26909;DHT22;14477;51.038;4.588;2023-05-07T11:30:02;20.10;92.40
26909;DHT22;14477;51.038;4.588;2023-05-07T11:32:30;20.10;92.40
26909;DHT22;14477;51.038;4.588;2023-05-07T11:34:59;20.20;92.40
26909;DHT22;14477;51.038;4.588;2023-05-07T11:37:26;20.20;92.50
26909;DHT22;14477;51.038;4.588;2023-05-07T11:40:07;20.20;92.50
26909;DHT22;14477;51.038;4.588;2023-05-07T11:42:38;20.20;92.60
26909;DHT22;14477;51.038;4.588;2023-05-07T11:45:05;20.30;92.60
26909;DHT22;14477;51.038;4.588;2023-05-07T11:47:32;20.30;92.60
26909;DHT22;14477;51.038;4.588;2023-05-07T11:50:03;20.40;92.80
26909;DHT22;14477;51.038;4.588;2023-05-07T11:52:30;20.50;92.80
26909;DHT22;14477;51.038;4.588;2023-05-07T11:54:57;20.50;92.80
26909;DHT22;14477;51.038;4.588;2023-05-07T11:57:27;20.60;92.90
26909;DHT22;14477;51.038;4.588;2023-05-07T11:59:59;20.60;93.00
26909;DHT22;14477;51.038;4.588;2023-05-07T12:02:27;20.80;93.10
26909;DHT22;14477;51.038;4.588;2023-05-07T12:04:54;20.80;93.00
26909;DHT22;14477;51.038;4.588;2023-05-07T12:07:20;20.90;92.90
26909;DHT22;14477;51.038;4.588;2023-05-07T12:09:47;21.00;92.50
26909;DHT22;14477;51.038;4.588;2023-05-07T12:12:13;21.00;92.70
26909;DHT22;14477;51.038;4.588;2023-05-07T12:14:45;21.10;92.80
26909;DHT22;14477;51.038;4.588;2023-05-07T12:17:12;21.10;92.70
26909;DHT22;14477;51.038;4.588;2023-05-07T12:19:40;21.20;92.80
26909;DHT22;14477;51.038;4.588;2023-05-07T12:22:10;21.20;92.80
26909;DHT22;14477;51.038;4.588;2023-05-07T12:25:02;21.30;92.70
26909;DHT22;14477;51.038;4.588;2023-05-07T12:27:28;21.40;92.30
26909;DHT22;14477;51.038;4.588;2023-05-07T12:29:54;21.40;92.50
26909;DHT22;14477;51.038;4.588;2023-05-07T12:32:21;21.40;92.50
26909;DHT22;14477;51.038;4.588;2023-05-07T12:34:50;21.50;92.50
26909;DHT22;14477;51.038;4.588;2023-05-07T12:37:16;21.50;92.60
26909;DHT22;14477;51.038;4.588;2023-05-07T12:39:49;21.60;92.60
26909;DHT22;14477;51.038;4.588;2023-05-07T12:42:16;21.60;92.50
26909;DHT22;14477;51.038;4.588;2023-05-07T12:44:45;21.70;92.70
26909;DHT22;14477;51.038;4.588;2023-05-07T12:47:11;21.80;92.70
26909;DHT22;14477;51.038;4.588;2023-05-07T12:49:38;21.80;92.80
26909;DHT22;14477;51.038;4.588;2023-05-07T12:52:05;21.90;92.90
26909;DHT22;14477;51.038;4.588;2023-05-07T12:54:37;22.00;92.70
26909;DHT22;14477;51.038;4.588;2023-05-07T12:57:08;22.00;92.30
26909;DHT22;14477;51.038;4.588;2023-05-07T12:59:37;22.10;92.20
26909;DHT22;14477;51.038;4.588;2023-05-07T13:02:04;22.10;92.20
26909;DHT22;14477;51.038;4.588;2023-05-07T13:04:30;22.20;92.30
26909;DHT22;14477;51.038;4.588;2023-05-07T13:06:56;22.20;92.30
26909;DHT22;14477;51.038;4.588;2023-05-07T13:09:22;22.20;92.40
26909;DHT22;14477;51.038;4.588;2023-05-07T13:11:48;22.30;92.50
26909;DHT22;14477;51.038;4.588;2023-05-07T13:14:14;22.30;92.60
26909;DHT22;14477;51.038;4.588;2023-05-07T13:16:40;22.40;92.70
26909;DHT22;14477;51.038;4.588;2023-05-07T13:19:06;22.40;92.70
26909;DHT22;14477;51.038;4.588;2023-05-07T13:21:32;22.50;92.70
26909;DHT22;14477;51.038;4.588;2023-05-07T13:23:58;22.50;92.60
26909;DHT22;14477;51.038;4.588;2023-05-07T13:26:25;22.60;92.50
26909;DHT22;14477;51.038;4.588;2023-05-07T13:28:51;22.60;92.50
26909;DHT22;14477;51.038;4.588;2023-05-07T13:31:17;22.70;92.50
26909;DHT22;14477;51.038;4.588;2023-05-07T13:33:43;22.70;92.30
26909;DHT22;14477;51.038;4.588;2023-05-07T13:36:09;22.70;92.30
26909;DHT22;14477;51.038;4.588;2023-05-07T13:38:35;22.80;92.40
26909;DHT22;14477;51.038;4.588;2023-05-07T13:41:01;22.90;92.30
26909;DHT22;14477;51.038;4.588;2023-05-07T13:43:26;22.90;92.20
26909;DHT22;14477;51.038;4.588;2023-05-07T13:45:52;22.90;92.20
26909;DHT22;14477;51.038;4.588;2023-05-07T13:48:18;23.00;92.30
26909;DHT22;14477;51.038;4.588;2023-05-07T13:50:44;23.00;92.10
26909;DHT22;14477;51.038;4.588;2023-05-07T13:53:09;23.00;92.10
26909;DHT22;14477;51.038;4.588;2023-05-07T13:55:35;23.00;92.10
26909;DHT22;14477;51.038;4.588;2023-05-07T13:58:02;23.00;92.20
26909;DHT22;14477;51.038;4.588;2023-05-07T14:00:29;23.10;92.10
26909;DHT22;14477;51.038;4.588;2023-05-07T14:02:56;23.10;92.10
26909;DHT22;14477;51.038;4.588;2023-05-07T14:05:22;23.10;91.90
26909;DHT22;14477;51.038;4.588;2023-05-07T14:07:54;23.10;91.90
26909;DHT22;14477;51.038;4.588;2023-05-07T14:10:20;23.20;91.90
26909;DHT22;14477;51.038;4.588;2023-05-07T14:12:46;23.20;91.70
26909;DHT22;14477;51.038;4.588;2023-05-07T14:15:12;23.10;92.00
26909;DHT22;14477;51.038;4.588;2023-05-07T14:17:38;23.10;91.80
26909;DHT22;14477;51.038;4.588;2023-05-07T14:20:04;23.20;91.90
26909;DHT22;14477;51.038;4.588;2023-05-07T14:22:31;23.20;91.80
26909;DHT22;14477;51.038;4.588;2023-05-07T14:24:57;23.20;91.80
26909;DHT22;14477;51.038;4.588;2023-05-07T14:27:23;23.20;91.80
26909;DHT22;14477;51.038;4.588;2023-05-07T14:29:48;23.20;91.80
26909;DHT22;14477;51.038;4.588;2023-05-07T14:32:17;23.20;91.70
26909;DHT22;14477;51.038;4.588;2023-05-07T14:34:44;23.20;91.50
26909;DHT22;14477;51.038;4.588;2023-05-07T14:37:10;23.20;91.70
26909;DHT22;14477;51.038;4.588;2023-05-07T14:39:36;23.20;91.70
26909;DHT22;14477;51.038;4.588;2023-05-07T14:42:01;23.20;91.70
26909;DHT22;14477;51.038;4.588;2023-05-07T14:44:27;23.10;91.60
26909;DHT22;14477;51.038;4.588;2023-05-07T14:46:53;23.10;91.50
26909;DHT22;14477;51.038;4.588;2023-05-07T14:49:19;23.10;91.60
26909;DHT22;14477;51.038;4.588;2023-05-07T14:51:46;23.10;91.50
26909;DHT22;14477;51.038;4.588;2023-05-07T14:54:13;23.10;91.40
26909;DHT22;14477;51.038;4.588;2023-05-07T14:56:40;23.00;91.30
26909;DHT22;14477;51.038;4.588;2023-05-07T14:59:07;23.00;91.20
26909;DHT22;14477;51.038;4.588;2023-05-07T15:01:35;22.90;91.10
26909;DHT22;14477;51.038;4.588;2023-05-07T15:04:03;22.90;91.00
26909;DHT22;14477;51.038;4.588;2023-05-07T15:06:29;22.80;90.90
26909;DHT22;14477;51.038;4.588;2023-05-07T15:08:55;22.70;91.10
26909;DHT22;14477;51.038;4.588;2023-05-07T15:11:21;22.70;91.10
26909;DHT22;14477;51.038;4.588;2023-05-07T15:13:46;22.70;91.20
26909;DHT22;14477;51.038;4.588;2023-05-07T15:16:12;22.70;91.20
26909;DHT22;14477;51.038;4.588;2023-05-07T15:18:38;22.70;91.20
26909;DHT22;14477;51.038;4.588;2023-05-07T15:21:04;22.70;91.30
26909;DHT22;14477;51.038;4.588;2023-05-07T15:23:30;22.70;91.20
26909;DHT22;14477;51.038;4.588;2023-05-07T15:25:57;22.70;91.20
26909;DHT22;14477;51.038;4.588;2023-05-07T15:28:23;22.70;91.20
26909;DHT22;14477;51.038;4.588;2023-05-07T15:30:50;22.70;91.30
26909;DHT22;14477;51.038;4.588;2023-05-07T15:33:16;22.70;91.30
26909;DHT22;14477;51.038;4.588;2023-05-07T15:35:41;22.80;91.30
26909;DHT22;14477;51.038;4.588;2023-05-07T15:38:07;22.70;91.20
26909;DHT22;14477;51.038;4.588;2023-05-07T15:40:34;22.80;91.20
26909;DHT22;14477;51.038;4.588;2023-05-07T15:43:00;22.80;91.00
26909;DHT22;14477;51.038;4.588;2023-05-07T15:45:26;22.80;91.00